Time;durP1;ratioP1;P1;durP2;ratioP2;P2;SDS_P1;SDS_P2;PMS_P1;PMS_P2;Temp;Humidity;BMP_temperature;BMP_pressure;BME280_temperature;BME280_humidity;BME280_pressure;Samples;Min_cycle;Max_cycle;Signal;HPM_P1;HPM_P2
2022/05/11 08:01:59;;;;;;;10.48;7.10;;;27.00;41.40;;;;;;4993972;28;20201;-72
2022/05/11 08:04:27;;;;;;;10.67;6.73;;;27.10;41.40;;;;;;4993115;28;20198;-72
2022/05/11 08:06:54;;;;;;;12.82;7.22;;;27.10;41.40;;;;;;4993266;28;20620;-72
2022/05/11 08:09:22;;;;;;;12.15;6.65;;;27.20;41.30;;;;;;4984418;28;20224;-74
2022/05/11 08:11:50;;;;;;;12.68;5.97;;;27.20;40.80;;;;;;4974909;28;20201;-74
2022/05/11 08:14:19;;;;;;;10.70;6.35;;;27.20;40.90;;;;;;4973807;28;20212;-73
2022/05/11 08:16:51;;;;;;;8.98;6.00;;;27.30;41.10;;;;;;4973773;28;20266;-72
2022/05/11 08:19:19;;;;;;;12.15;6.22;;;27.30;40.90;;;;;;4973590;28;20695;-72
2022/05/11 08:21:48;;;;;;;7.93;5.50;;;27.30;40.90;;;;;;4973613;28;20240;-72
2022/05/11 08:24:16;;;;;;;8.75;5.50;;;27.30;40.90;;;;;;4973540;28;20324;-72
2022/05/11 08:26:46;;;;;;;8.32;5.50;;;27.30;40.90;;;;;;4973312;28;20217;-72
2022/05/11 08:33:19;;;;;;;8.65;5.10;;;27.40;40.80;;;;;;5129578;23;20229;-74
2022/05/11 08:34:50;;;;;;;6.35;4.93;;;27.40;41.10;;;;;;4973569;28;20242;-72
2022/05/11 08:37:18;;;;;;;10.30;5.65;;;27.50;41.00;;;;;;4973744;28;20206;-72
2022/05/11 08:42:27;;;;;;;6.88;5.03;;;27.50;41.60;;;;;;5322599;23;20322;-69
2022/05/11 08:44:54;;;;;;;8.25;5.10;;;27.60;40.90;;;;;;5010100;28;20220;-67
2022/05/11 08:47:28;;;;;;;5.22;4.70;;;27.60;40.90;;;;;;4998439;28;20196;-67
2022/05/11 08:49:57;;;;;;;5.35;4.68;;;27.60;40.80;;;;;;4997065;28;20560;-68
2022/05/11 08:52:31;;;;;;;5.03;4.60;;;27.60;40.70;;;;;;4982675;28;20279;-67
2022/05/11 08:55:01;;;;;;;8.07;5.03;;;27.60;40.70;;;;;;4978342;28;20170;-67
2022/05/11 08:57:28;;;;;;;6.88;5.00;;;27.60;40.60;;;;;;4977117;28;20197;-67
2022/05/11 08:59:59;;;;;;;7.35;4.63;;;27.60;40.50;;;;;;5002452;23;20300;-72
2022/05/11 09:02:30;;;;;;;5.63;4.40;;;27.60;40.40;;;;;;5157621;23;20287;-72
2022/05/11 09:04:59;;;;;;;5.55;4.57;;;27.60;40.00;;;;;;5084851;23;20234;-71
2022/05/11 09:07:30;;;;;;;7.97;4.90;;;27.60;40.00;;;;;;4977687;28;20670;-72
2022/05/11 09:09:58;;;;;;;5.40;4.50;;;27.60;40.20;;;;;;4963141;28;20222;-70
2022/05/11 09:12:27;;;;;;;6.28;4.70;;;27.60;40.50;;;;;;4957933;28;20226;-71
2022/05/11 09:14:59;;;;;;;5.75;4.78;;;27.60;40.50;;;;;;4959153;28;20201;-71
2022/05/11 09:17:28;;;;;;;5.80;4.47;;;27.60;40.50;;;;;;4957593;29;20625;-70
2022/05/11 09:20:04;;;;;;;4.70;4.20;;;27.60;40.50;;;;;;4958830;28;20258;-70
2022/05/11 09:22:32;;;;;;;5.53;4.80;;;27.60;40.40;;;;;;4958510;28;20194;-70
2022/05/11 09:25:00;;;;;;;6.75;4.50;;;27.60;40.40;;;;;;4958457;28;20565;-70
2022/05/11 09:27:29;;;;;;;5.40;4.50;;;27.60;40.30;;;;;;4957248;29;20202;-70
2022/05/11 09:29:59;;;;;;;4.93;4.40;;;27.60;40.30;;;;;;4958250;28;20216;-70
2022/05/11 09:32:31;;;;;;;6.00;4.25;;;27.60;40.30;;;;;;4957342;28;20214;-70
2022/05/11 09:35:18;;;;;;;5.53;4.55;;;27.50;40.20;;;;;;4959237;28;20179;-70
2022/05/11 09:37:45;;;;;;;4.22;3.83;;;27.50;40.20;;;;;;4957138;28;20570;-70
2022/05/11 09:40:14;;;;;;;4.80;4.13;;;27.50;40.20;;;;;;4958220;28;20214;-70
2022/05/11 09:42:49;;;;;;;4.63;4.20;;;27.50;40.20;;;;;;4957047;29;20210;-71
2022/05/11 09:45:41;;;;;;;4.75;4.30;;;27.50;40.20;;;;;;4958070;28;20551;-70
2022/05/11 09:48:16;;;;;;;5.78;4.20;;;27.40;40.20;;;;;;4956938;28;20648;-70
2022/05/11 09:50:44;;;;;;;4.72;4.03;;;27.50;40.30;;;;;;4956221;28;20589;-70
2022/05/11 09:53:23;;;;;;;4.28;3.92;;;27.40;40.30;;;;;;4956618;29;20253;-70
2022/05/11 09:55:50;;;;;;;5.13;4.13;;;27.40;40.30;;;;;;4957622;29;20548;-70
2022/05/11 09:58:28;;;;;;;4.65;4.10;;;27.40;40.50;;;;;;4957096;28;20201;-71
2022/05/11 10:01:08;;;;;;;4.38;3.97;;;27.30;40.40;;;;;;4957821;28;20665;-70
2022/05/11 10:03:37;;;;;;;4.25;3.85;;;27.30;40.50;;;;;;4956450;28;20292;-70
2022/05/11 10:06:04;;;;;;;4.43;4.00;;;27.30;40.60;;;;;;4957597;28;20649;-70
2022/05/11 10:08:33;;;;;;;4.50;4.10;;;27.20;40.60;;;;;;4956527;28;20205;-70
2022/05/11 10:11:02;;;;;;;4.57;4.18;;;27.20;40.70;;;;;;4957875;28;20542;-70
2022/05/11 10:13:32;;;;;;;5.57;4.13;;;27.10;40.70;;;;;;4957795;28;20530;-70
2022/05/11 10:21:54;;;;;;;4.30;3.90;;;27.10;40.90;;;;;;4955579;29;20199;-70
2022/05/11 10:24:28;;;;;;;3.90;3.60;;;27.00;41.00;;;;;;4956145;29;20742;-70
2022/05/11 10:26:59;;;;;;;4.15;3.75;;;27.00;41.00;;;;;;4956241;28;20222;-70
2022/05/11 10:32:06;;;;;;;4.50;4.10;;;27.00;41.20;;;;;;5025572;23;20323;-72
2022/05/11 10:34:39;;;;;;;4.97;4.03;;;26.90;41.20;;;;;;5063159;23;20261;-70
2022/05/11 10:37:09;;;;;;;5.97;4.35;;;26.90;41.30;;;;;;4994974;28;20196;-70
2022/05/11 10:42:29;;;;;;;4.82;4.30;;;26.70;41.70;;;;;;4975431;26;20221;-70
2022/05/11 10:45:03;;;;;;;3.90;3.60;;;26.70;41.90;;;;;;4975486;28;20576;-71
2022/05/11 10:47:45;;;;;;;4.15;3.75;;;26.60;41.90;;;;;;4975412;28;20214;-71
2022/05/11 10:50:20;;;;;;;4.88;3.90;;;26.60;42.10;;;;;;4975419;28;20232;-71
2022/05/11 10:53:04;;;;;;;4.72;4.22;;;26.60;42.20;;;;;;4976684;28;20174;-71
2022/05/11 10:55:38;;;;;;;5.20;4.07;;;26.50;42.20;;;;;;4975100;28;20277;-71
2022/05/11 10:58:17;;;;;;;5.05;4.20;;;26.60;42.30;;;;;;4975070;28;20252;-71
2022/05/11 11:00:45;;;;;;;4.95;3.70;;;26.50;42.30;;;;;;4976142;28;20257;-71
2022/05/11 11:03:39;;;;;;;4.30;3.95;;;26.50;42.40;;;;;;4974299;28;20202;-71
2022/05/11 11:09:07;;;;;;;4.03;3.67;;;26.40;42.60;;;;;;4976150;28;20244;-71
2022/05/11 11:11:37;;;;;;;4.10;3.80;;;26.40;42.70;;;;;;4976560;28;20182;-72
2022/05/11 11:14:04;;;;;;;4.20;3.90;;;26.40;42.70;;;;;;4977311;28;20202;-71
2022/05/11 11:16:33;;;;;;;4.30;3.90;;;26.30;42.70;;;;;;4976118;28;20217;-71
2022/05/11 11:19:01;;;;;;;4.05;3.75;;;26.40;42.80;;;;;;4975113;28;20245;-71
2022/05/11 11:21:29;;;;;;;4.55;4.15;;;26.30;42.80;;;;;;4975002;28;20674;-72
2022/05/11 11:34:48;;;;;;;4.03;3.65;;;26.20;43.00;;;;;;5138164;23;20275;-73
2022/05/11 11:37:44;;;;;;;4.25;3.85;;;26.20;43.00;;;;;;4976651;28;20214;-72
2022/05/11 11:40:28;;;;;;;4.10;3.70;;;26.20;43.00;;;;;;4974094;28;20245;-73
2022/05/11 11:42:55;;;;;;;4.22;3.83;;;26.20;43.10;;;;;;5072756;23;20233;-72
2022/05/11 11:46:00;;;;;;;4.07;3.78;;;26.20;43.10;;;;;;5100600;23;20234;-71
2022/05/11 11:48:27;;;;;;;4.03;3.72;;;26.20;42.70;;;;;;4918951;29;20238;-72
2022/05/11 11:50:58;;;;;;;4.72;3.70;;;26.20;42.00;;;;;;4964059;28;20224;-72
2022/05/11 11:53:31;;;;;;;3.90;3.60;;;26.20;41.50;;;;;;4973875;28;20200;-72
2022/05/11 11:56:23;;;;;;;4.38;3.75;;;26.30;41.40;;;;;;4975327;28;20666;-73
2022/05/11 11:59:03;;;;;;;4.00;3.35;;;26.30;41.00;;;;;;4974145;28;20204;-72
2022/05/11 12:01:31;;;;;;;7.07;3.55;;;26.40;40.20;;;;;;5007803;23;20232;-68
2022/05/11 12:04:00;;;;;;;4.03;3.63;;;26.50;40.10;;;;;;4974195;28;20202;-67
2022/05/11 12:15:03;;;;;;;3.65;3.25;;;26.50;39.30;;;;;;4955995;28;20266;-69
2022/05/11 12:17:35;;;;;;;3.78;3.38;;;26.40;39.40;;;;;;4954439;28;20194;-70
2022/05/11 12:20:06;;;;;;;3.53;3.20;;;26.40;39.50;;;;;;4954369;28;20712;-68
2022/05/11 12:22:38;;;;;;;3.95;3.65;;;26.40;39.80;;;;;;4956033;28;20754;-68
2022/05/11 12:25:11;;;;;;;4.00;3.60;;;26.30;40.10;;;;;;4954457;28;20209;-68
2022/05/11 12:27:38;;;;;;;4.55;3.53;;;26.20;40.30;;;;;;4955466;29;20194;-67
2022/05/11 12:30:08;;;;;;;3.75;3.42;;;26.20;40.60;;;;;;4955499;28;20221;-67
2022/05/11 12:32:36;;;;;;;3.63;3.25;;;26.20;40.90;;;;;;4968209;28;20221;-68
2022/05/11 12:35:11;;;;;;;3.78;3.47;;;26.10;41.10;;;;;;4958810;28;20195;-67
2022/05/11 12:37:38;;;;;;;4.63;3.45;;;26.00;41.20;;;;;;4955941;28;20186;-67
2022/05/11 12:40:09;;;;;;;3.60;3.30;;;26.00;41.30;;;;;;4955047;28;20191;-67
2022/05/11 12:42:38;;;;;;;3.50;3.30;;;26.00;41.60;;;;;;4954340;28;20218;-67
2022/05/11 12:45:07;;;;;;;3.40;3.20;;;25.90;41.70;;;;;;4954498;28;20214;-68
2022/05/11 12:47:36;;;;;;;3.58;3.28;;;25.90;41.90;;;;;;4953948;28;20599;-67
2022/05/11 12:50:03;;;;;;;3.45;3.15;;;25.90;42.10;;;;;;4955541;28;20619;-66
2022/05/11 12:52:31;;;;;;;3.72;3.42;;;25.80;42.10;;;;;;4954049;28;20222;-67
2022/05/11 12:55:02;;;;;;;3.63;3.33;;;25.80;42.20;;;;;;4955309;29;20199;-67
2022/05/11 12:57:41;;;;;;;3.40;3.20;;;25.80;42.30;;;;;;4954137;28;20238;-68
2022/05/11 13:00:15;;;;;;;3.45;3.15;;;25.70;41.90;;;;;;4954327;29;20206;-68
2022/05/11 13:02:44;;;;;;;3.50;3.30;;;25.70;41.20;;;;;;4954008;28;20226;-69
2022/05/11 13:05:15;;;;;;;4.45;3.17;;;25.70;40.50;;;;;;4955684;28;20198;-68
2022/05/11 13:07:47;;;;;;;3.83;3.53;;;25.80;40.20;;;;;;4959804;28;20292;-69
2022/05/11 13:10:16;;;;;;;3.75;3.40;;;25.80;39.20;;;;;;4958278;28;20194;-69
2022/05/11 13:12:46;;;;;;;3.58;3.20;;;25.80;38.70;;;;;;4953884;28;20691;-69
2022/05/11 13:15:13;;;;;;;3.97;3.42;;;25.90;38.40;;;;;;4953844;28;20298;-69
2022/05/11 13:17:43;;;;;;;3.20;2.90;;;25.90;38.30;;;;;;4953747;29;20270;-69
2022/05/11 13:20:19;;;;;;;4.32;3.30;;;25.90;38.10;;;;;;4954099;28;20199;-68
2022/05/11 13:22:49;;;;;;;4.38;3.05;;;25.90;37.70;;;;;;4954489;28;20230;-69
2022/05/11 13:25:38;;;;;;;4.57;3.05;;;25.90;38.40;;;;;;4956725;28;20186;-69
2022/05/11 13:28:11;;;;;;;4.90;3.17;;;25.90;38.60;;;;;;4958799;28;20612;-69
2022/05/11 13:30:42;;;;;;;4.32;3.03;;;25.80;39.20;;;;;;4957091;28;20659;-69
2022/05/11 13:33:35;;;;;;;4.40;3.22;;;25.90;39.50;;;;;;4957181;28;20214;-70
2022/05/11 13:36:19;;;;;;;3.65;3.10;;;25.90;39.70;;;;;;4957289;28;20238;-69
2022/05/11 13:38:57;;;;;;;4.15;2.83;;;25.80;39.80;;;;;;4958724;28;20182;-69
2022/05/11 13:41:28;;;;;;;3.40;3.10;;;25.80;40.10;;;;;;4957339;28;20710;-69
2022/05/11 13:43:57;;;;;;;3.28;3.00;;;25.70;40.20;;;;;;4958365;29;20641;-68
2022/05/11 13:48:11;;;;;;;3.60;3.10;;;25.70;40.70;;;;;;4957117;28;20420;-69
2022/05/11 13:49:32;;;;;;;3.22;2.90;;;25.70;40.90;;;;;;4956697;28;20198;-70
2022/05/11 13:51:59;;;;;;;3.20;3.00;;;25.70;41.10;;;;;;4958812;28;20694;-70
2022/05/11 13:54:29;;;;;;;3.47;3.15;;;25.70;41.10;;;;;;4956736;28;20202;-69
2022/05/11 13:57:01;;;;;;;3.33;3.13;;;25.60;41.30;;;;;;4958106;28;20234;-70
2022/05/11 13:59:30;;;;;;;3.17;2.90;;;25.60;41.40;;;;;;4956730;28;20198;-69
2022/05/11 14:01:59;;;;;;;3.20;3.00;;;25.60;41.60;;;;;;4956742;28;20242;-69
2022/05/11 14:04:28;;;;;;;3.35;3.10;;;25.60;41.80;;;;;;4957940;29;20205;-69
2022/05/11 14:06:59;;;;;;;3.65;3.30;;;25.60;41.90;;;;;;4956732;28;20215;-69
2022/05/11 14:09:26;;;;;;;3.80;3.50;;;25.50;41.90;;;;;;4958070;28;20202;-68
2022/05/11 14:11:55;;;;;;;3.20;3.00;;;25.50;42.10;;;;;;4956567;28;20285;-69
2022/05/11 14:14:22;;;;;;;4.32;3.33;;;25.50;42.10;;;;;;4956697;28;20678;-69
2022/05/11 14:16:51;;;;;;;3.20;3.00;;;25.50;42.30;;;;;;4957393;28;20205;-69
2022/05/11 14:19:19;;;;;;;3.20;3.00;;;25.50;42.40;;;;;;4958998;28;20206;-69
2022/05/11 14:21:46;;;;;;;3.28;3.00;;;25.40;42.40;;;;;;4966050;28;20218;-68
2022/05/11 14:24:14;;;;;;;3.65;3.10;;;25.40;42.50;;;;;;4957758;28;20199;-69
2022/05/11 14:26:42;;;;;;;3.00;2.80;;;25.40;42.60;;;;;;4958065;28;20290;-69
2022/05/11 14:29:09;;;;;;;3.50;2.85;;;25.40;43.20;;;;;;4957516;28;20250;-69
2022/05/11 14:34:24;;;;;;;3.10;2.90;;;25.40;42.70;;;;;;5140142;23;20236;-69
2022/05/11 14:36:53;;;;;;;3.30;3.00;;;25.40;42.90;;;;;;4995900;28;20228;-69
2022/05/11 14:39:23;;;;;;;3.10;2.85;;;25.40;42.90;;;;;;4995342;28;20224;-68
2022/05/11 14:41:50;;;;;;;3.28;2.97;;;25.40;43.00;;;;;;4994665;28;20208;-70
2022/05/11 14:44:18;;;;;;;3.60;3.30;;;25.40;43.10;;;;;;4977441;28;20226;-69
2022/05/11 14:46:45;;;;;;;3.13;2.92;;;25.40;43.10;;;;;;4975109;28;20222;-69
2022/05/11 14:49:14;;;;;;;3.22;2.97;;;25.40;43.20;;;;;;4975111;28;20207;-68
2022/05/11 14:51:44;;;;;;;3.22;2.92;;;25.40;43.30;;;;;;4976347;28;20190;-69
2022/05/11 14:54:12;;;;;;;5.22;3.10;;;25.30;43.10;;;;;;4974997;28;20222;-70
2022/05/11 14:56:40;;;;;;;3.20;3.00;;;25.30;43.00;;;;;;4975290;28;20210;-69
2022/05/11 15:02:00;;;;;;;3.42;2.97;;;25.30;43.10;;;;;;4976108;28;20182;-69
2022/05/11 15:04:33;;;;;;;3.20;3.00;;;25.30;43.10;;;;;;4974916;28;20724;-69
2022/05/11 15:07:02;;;;;;;3.20;3.00;;;25.30;43.20;;;;;;4976779;28;20666;-69
2022/05/11 15:09:30;;;;;;;2.70;2.50;;;25.40;43.30;;;;;;4974769;28;20194;-68
2022/05/11 15:14:43;;;;;;;3.35;3.05;;;25.30;43.30;;;;;;4974679;28;20659;-69
2022/05/11 15:17:13;;;;;;;3.55;2.90;;;25.30;43.40;;;;;;4975920;28;20186;-70
2022/05/11 15:19:41;;;;;;;3.55;3.05;;;25.40;43.50;;;;;;4974862;28;20195;-69
2022/05/11 15:22:09;;;;;;;2.85;2.65;;;25.30;43.50;;;;;;4974497;28;20229;-69
2022/05/11 15:24:37;;;;;;;2.90;2.70;;;25.40;43.60;;;;;;4975615;28;20209;-69
2022/05/11 15:27:05;;;;;;;2.83;2.63;;;25.30;43.60;;;;;;4974286;28;20217;-68
2022/05/11 15:29:32;;;;;;;3.00;2.70;;;25.40;44.30;;;;;;4974339;28;20193;-69
2022/05/11 15:31:59;;;;;;;3.20;3.00;;;25.30;43.60;;;;;;4974579;28;20206;-69
2022/05/11 15:34:26;;;;;;;3.28;3.05;;;25.30;43.70;;;;;;4974340;28;20229;-69
2022/05/11 15:36:56;;;;;;;2.90;2.70;;;25.30;43.70;;;;;;4974310;28;20201;-69
2022/05/11 15:39:26;;;;;;;3.47;3.00;;;25.30;43.80;;;;;;4975826;28;20190;-69
2022/05/11 15:41:53;;;;;;;2.85;2.65;;;25.30;43.90;;;;;;4974186;28;20225;-69
2022/05/11 15:44:20;;;;;;;3.05;2.85;;;25.30;43.90;;;;;;4974031;28;20312;-69
2022/05/11 15:46:47;;;;;;;3.28;2.97;;;25.30;43.90;;;;;;4974132;28;20274;-67
2022/05/11 15:49:14;;;;;;;2.90;2.70;;;25.30;43.90;;;;;;4974986;28;20196;-67
2022/05/11 15:51:44;;;;;;;3.03;2.80;;;25.30;43.90;;;;;;4975566;28;20191;-67
2022/05/11 15:54:12;;;;;;;3.08;2.72;;;25.30;43.90;;;;;;4975544;28;20321;-67
2022/05/11 15:56:41;;;;;;;2.95;2.75;;;25.30;44.10;;;;;;4974348;28;20209;-68
2022/05/11 15:59:08;;;;;;;2.72;2.53;;;25.30;44.20;;;;;;4974036;28;20198;-67
2022/05/11 16:01:36;;;;;;;3.10;2.90;;;25.30;44.20;;;;;;4973954;28;20194;-67
2022/05/11 16:04:03;;;;;;;3.58;2.60;;;25.20;44.20;;;;;;4973799;28;20309;-68
2022/05/11 16:06:30;;;;;;;2.83;2.40;;;25.20;44.30;;;;;;4973789;28;20249;-67
2022/05/11 16:08:58;;;;;;;2.95;2.75;;;25.20;44.30;;;;;;4973891;28;20222;-67
2022/05/11 16:11:26;;;;;;;2.72;2.53;;;25.20;44.30;;;;;;4974999;28;20262;-69
2022/05/11 16:13:55;;;;;;;3.05;2.75;;;25.20;44.40;;;;;;4973582;28;20598;-67
2022/05/11 16:16:22;;;;;;;2.80;2.60;;;25.20;44.40;;;;;;4973676;28;20224;-67
2022/05/11 16:21:35;;;;;;;2.97;2.67;;;25.20;44.40;;;;;;4974193;28;20236;-67
2022/05/11 16:24:02;;;;;;;2.83;2.63;;;25.10;44.40;;;;;;4973568;28;20272;-67
2022/05/11 16:26:29;;;;;;;3.10;2.80;;;25.10;44.50;;;;;;4974908;28;20213;-67
2022/05/11 16:28:58;;;;;;;3.00;2.75;;;25.10;44.50;;;;;;4974801;28;20300;-67
2022/05/11 16:31:26;;;;;;;2.85;2.65;;;25.10;44.50;;;;;;4973497;28;20198;-67
2022/05/11 16:33:53;;;;;;;3.08;2.75;;;25.10;44.50;;;;;;4974722;28;20221;-67
2022/05/11 16:36:21;;;;;;;2.75;2.55;;;25.10;44.60;;;;;;4973652;28;20198;-67
2022/05/11 16:38:48;;;;;;;2.95;2.75;;;25.10;44.60;;;;;;4973483;28;20202;-67
2022/05/11 16:41:16;;;;;;;2.75;2.55;;;25.10;44.70;;;;;;4973396;28;20598;-67
2022/05/11 16:43:43;;;;;;;2.90;2.70;;;25.10;44.70;;;;;;4973598;28;20399;-67
2022/05/11 16:46:12;;;;;;;2.83;2.63;;;25.10;44.70;;;;;;4973333;28;20249;-68
2022/05/11 16:48:39;;;;;;;2.85;2.65;;;25.10;44.70;;;;;;4973400;28;20229;-67
2022/05/11 16:51:07;;;;;;;2.70;2.50;;;25.10;44.70;;;;;;4974506;28;20186;-67
2022/05/11 16:53:35;;;;;;;2.80;2.60;;;25.10;44.80;;;;;;4974404;28;20221;-67
2022/05/11 16:56:02;;;;;;;2.50;2.35;;;25.10;44.80;;;;;;4973369;28;20200;-67
2022/05/11 16:58:29;;;;;;;2.83;2.63;;;25.10;44.80;;;;;;4973423;28;20851;-67
2022/05/11 17:00:58;;;;;;;2.60;2.50;;;25.10;44.90;;;;;;4975890;28;20202;-67
2022/05/11 17:03:27;;;;;;;2.40;2.30;;;25.10;44.90;;;;;;4978306;28;20228;-67
2022/05/11 17:05:54;;;;;;;2.80;2.60;;;25.00;44.90;;;;;;4976941;28;20211;-67
2022/05/11 17:08:21;;;;;;;2.50;2.40;;;25.00;45.00;;;;;;4976944;28;20229;-67
2022/05/11 17:10:49;;;;;;;2.55;2.40;;;25.00;45.00;;;;;;4977056;28;20209;-69
2022/05/11 17:13:17;;;;;;;2.80;2.70;;;25.00;45.00;;;;;;4977825;28;20217;-67
2022/05/11 17:15:52;;;;;;;3.03;2.70;;;25.00;45.10;;;;;;4976786;28;20579;-67
2022/05/11 17:18:21;;;;;;;2.72;2.53;;;25.00;45.10;;;;;;4978516;28;20177;-67
2022/05/11 17:20:50;;;;;;;3.00;2.63;;;25.00;45.20;;;;;;4976917;28;20213;-67
2022/05/11 17:23:18;;;;;;;2.80;2.63;;;25.00;45.30;;;;;;4976909;28;20705;-68
2022/05/11 17:25:46;;;;;;;2.80;2.60;;;25.00;45.20;;;;;;4977855;28;20314;-68
2022/05/11 17:28:13;;;;;;;2.75;2.55;;;24.90;45.10;;;;;;4977766;28;20214;-68
2022/05/11 17:30:41;;;;;;;2.60;2.40;;;24.90;45.40;;;;;;4976547;28;20205;-68
2022/05/11 17:33:09;;;;;;;3.55;2.67;;;24.90;45.40;;;;;;4977885;28;20206;-68
2022/05/11 17:35:36;;;;;;;2.70;2.50;;;24.90;45.50;;;;;;4976337;28;20272;-69
2022/05/11 17:38:06;;;;;;;2.80;2.60;;;24.90;45.50;;;;;;4976385;28;20230;-68
2022/05/11 17:40:33;;;;;;;2.47;2.35;;;24.90;46.20;;;;;;4977579;28;20241;-68
2022/05/11 17:43:00;;;;;;;3.30;3.00;;;24.90;45.50;;;;;;4976828;28;20221;-68
2022/05/11 17:45:28;;;;;;;2.55;2.35;;;24.90;45.50;;;;;;4976643;28;20198;-67
2022/05/11 17:47:55;;;;;;;2.53;2.35;;;24.90;45.70;;;;;;4976962;28;20578;-67
2022/05/11 17:50:23;;;;;;;2.58;2.38;;;24.90;45.60;;;;;;4976248;28;20198;-68
2022/05/11 17:52:53;;;;;;;2.70;2.50;;;24.90;45.70;;;;;;4976104;28;20325;-67
2022/05/11 17:55:22;;;;;;;2.80;2.55;;;24.90;45.70;;;;;;4976169;28;20575;-68
2022/05/11 17:57:49;;;;;;;2.60;2.40;;;24.80;45.60;;;;;;4976055;28;20298;-68
2022/05/11 18:00:18;;;;;;;2.88;2.50;;;24.80;45.60;;;;;;4977125;28;20273;-68
2022/05/11 18:02:45;;;;;;;3.30;3.10;;;24.80;45.60;;;;;;4975534;28;20285;-68
2022/05/11 18:05:13;;;;;;;4.38;3.40;;;24.80;45.10;;;;;;4978204;28;20245;-68
2022/05/11 18:07:41;;;;;;;3.53;3.25;;;24.70;43.80;;;;;;4977638;28;20224;-68
2022/05/11 18:10:10;;;;;;;3.72;3.30;;;24.80;44.20;;;;;;4976943;28;20198;-68
2022/05/11 18:12:39;;;;;;;4.38;3.13;;;24.80;44.40;;;;;;4975989;28;20226;-68
2022/05/11 18:15:08;;;;;;;3.58;3.22;;;24.70;44.80;;;;;;4975748;28;20206;-67
2022/05/11 18:17:35;;;;;;;5.88;3.90;;;24.70;45.00;;;;;;4975658;28;20289;-67
2022/05/11 18:20:08;;;;;;;5.07;3.58;;;24.70;45.00;;;;;;4975661;28;20205;-68
2022/05/11 18:22:36;;;;;;;6.63;3.78;;;24.60;45.30;;;;;;4977171;28;20214;-68
2022/05/11 18:25:04;;;;;;;6.50;3.70;;;24.60;45.70;;;;;;4976851;28;20201;-68
2022/05/11 18:27:32;;;;;;;4.90;3.90;;;24.60;45.70;;;;;;4975514;28;20246;-67
2022/05/11 18:30:00;;;;;;;4.57;3.40;;;24.50;45.70;;;;;;4975602;28;20205;-68
2022/05/11 18:32:28;;;;;;;6.57;3.60;;;24.50;46.10;;;;;;4976626;28;20194;-68
2022/05/11 18:34:55;;;;;;;4.78;3.28;;;24.50;46.20;;;;;;4975834;28;20213;-68
2022/05/11 18:37:23;;;;;;;5.05;3.30;;;24.40;46.30;;;;;;4977049;28;20670;-67
2022/05/11 18:39:50;;;;;;;4.32;3.65;;;24.40;46.60;;;;;;4975516;28;20198;-68
2022/05/11 18:42:17;;;;;;;6.38;3.55;;;24.40;46.60;;;;;;4975835;28;20202;-68
2022/05/11 18:44:44;;;;;;;7.22;3.67;;;24.30;46.60;;;;;;4976786;28;20613;-68
2022/05/11 18:47:13;;;;;;;7.40;3.92;;;24.30;46.60;;;;;;4975630;28;20623;-68
2022/05/11 18:49:40;;;;;;;4.72;3.65;;;24.30;46.70;;;;;;4975470;28;20246;-68
2022/05/11 18:52:08;;;;;;;5.72;4.45;;;24.20;46.40;;;;;;4975378;28;20248;-68
2022/05/11 18:54:36;;;;;;;4.82;4.32;;;24.20;46.50;;;;;;4975291;28;20233;-67
2022/05/11 18:57:04;;;;;;;5.13;4.07;;;24.20;46.70;;;;;;4975536;28;20292;-68
2022/05/11 18:59:31;;;;;;;10.48;4.28;;;24.10;46.60;;;;;;4975304;28;20241;-68
2022/05/11 19:01:59;;;;;;;5.90;3.33;;;24.10;46.50;;;;;;4975108;28;20288;-67
2022/05/11 19:04:27;;;;;;;4.82;3.38;;;24.10;46.20;;;;;;4975019;28;20218;-68
2022/05/11 19:06:55;;;;;;;4.40;3.40;;;24.00;46.10;;;;;;4975308;28;20209;-68
2022/05/11 19:09:23;;;;;;;3.67;3.35;;;24.00;46.60;;;;;;4975103;28;20290;-68
2022/05/11 19:11:50;;;;;;;5.57;3.50;;;24.00;46.70;;;;;;4976629;28;20201;-67
2022/05/11 19:14:21;;;;;;;3.65;3.35;;;24.00;46.80;;;;;;4977258;28;20639;-67
2022/05/11 19:16:56;;;;;;;3.67;3.38;;;24.10;46.90;;;;;;4976246;28;20174;-68
2022/05/11 19:20:07;;;;;;;4.90;3.25;;;24.10;47.20;;;;;;4976478;28;20212;-68
2022/05/11 19:22:35;;;;;;;4.05;3.50;;;24.00;47.60;;;;;;4974237;28;20597;-68
2022/05/11 19:25:02;;;;;;;5.05;3.35;;;24.10;47.30;;;;;;4974587;28;20201;-68
2022/05/11 19:27:29;;;;;;;3.80;3.25;;;24.00;47.30;;;;;;4974615;28;20667;-68
2022/05/11 19:29:56;;;;;;;4.30;3.40;;;24.00;47.40;;;;;;4974948;28;20296;-68
2022/05/11 19:32:24;;;;;;;3.85;3.45;;;24.10;48.20;;;;;;4975249;28;20658;-68
2022/05/11 19:34:51;;;;;;;5.03;3.38;;;24.10;47.50;;;;;;4976649;28;20198;-68
2022/05/11 19:37:20;;;;;;;3.63;3.05;;;24.00;47.50;;;;;;4974781;28;20202;-68
2022/05/11 19:39:47;;;;;;;4.13;3.10;;;24.00;47.50;;;;;;4976727;28;20194;-68
2022/05/11 19:42:14;;;;;;;4.55;3.45;;;24.00;47.50;;;;;;4975373;28;20206;-67
2022/05/11 19:44:41;;;;;;;3.45;3.25;;;24.00;47.50;;;;;;4978643;28;20195;-68
2022/05/11 19:47:09;;;;;;;3.90;3.20;;;24.00;47.50;;;;;;4975931;28;20198;-69
2022/05/11 19:49:36;;;;;;;4.95;2.92;;;24.00;47.50;;;;;;4975907;28;20206;-67
2022/05/11 19:52:03;;;;;;;3.42;3.13;;;24.00;47.60;;;;;;4979124;28;20293;-68
2022/05/11 19:54:32;;;;;;;3.40;3.10;;;24.00;47.60;;;;;;4977527;28;20236;-68
2022/05/11 19:56:59;;;;;;;3.55;3.25;;;24.00;47.50;;;;;;4983870;28;20205;-68
2022/05/11 19:59:26;;;;;;;2.97;2.70;;;23.90;47.40;;;;;;4990418;28;20206;-69
2022/05/11 20:01:53;;;;;;;3.30;3.00;;;23.90;47.50;;;;;;4974818;28;20202;-68
2022/05/11 20:04:21;;;;;;;3.30;3.00;;;23.90;47.60;;;;;;4974218;28;20640;-68
2022/05/11 20:06:50;;;;;;;3.45;2.97;;;23.80;47.50;;;;;;4975108;28;20198;-68
2022/05/11 20:09:18;;;;;;;3.20;3.00;;;23.80;47.60;;;;;;4973765;28;20222;-68
2022/05/11 20:11:47;;;;;;;3.55;2.70;;;23.80;47.60;;;;;;4974038;28;20658;-67
2022/05/11 20:14:14;;;;;;;3.60;2.90;;;23.80;47.70;;;;;;4974073;28;20221;-68
2022/05/11 20:16:41;;;;;;;3.03;2.83;;;23.70;47.80;;;;;;4975052;28;20190;-68
2022/05/11 20:19:08;;;;;;;3.45;3.10;;;23.70;47.80;;;;;;4975086;28;20234;-68
2022/05/11 20:21:36;;;;;;;3.40;3.15;;;23.70;47.90;;;;;;4974809;28;20202;-68
2022/05/11 20:24:03;;;;;;;3.47;3.17;;;23.60;47.90;;;;;;4974981;28;20736;-69
2022/05/11 20:26:30;;;;;;;3.30;3.10;;;23.60;48.10;;;;;;4974318;28;20671;-69
2022/05/11 20:28:59;;;;;;;4.05;2.85;;;23.60;48.10;;;;;;4973470;28;20722;-69
2022/05/11 20:36:56;;;;;;;3.22;3.00;;;23.50;48.50;;;;;;4980773;28;20301;-69
2022/05/11 20:39:24;;;;;;;3.42;3.15;;;23.50;48.50;;;;;;4981126;28;20244;-69
2022/05/11 20:41:52;;;;;;;3.33;3.03;;;23.40;48.50;;;;;;4980098;28;20643;-68
2022/05/11 20:44:21;;;;;;;3.00;2.75;;;23.40;48.50;;;;;;4981313;28;20210;-68
2022/05/11 20:46:48;;;;;;;3.30;2.90;;;23.40;48.50;;;;;;4980372;28;20733;-68
2022/05/11 20:49:15;;;;;;;2.85;2.63;;;23.30;48.50;;;;;;4980871;28;20696;-69
2022/05/11 20:51:42;;;;;;;2.90;2.70;;;23.30;48.70;;;;;;4979945;28;20208;-69
2022/05/11 20:54:10;;;;;;;3.72;3.42;;;23.30;48.80;;;;;;4981056;28;20206;-69
2022/05/11 20:56:37;;;;;;;3.20;2.90;;;23.30;48.80;;;;;;4980966;28;20191;-69
2022/05/11 20:59:04;;;;;;;3.22;2.92;;;23.20;48.80;;;;;;4980832;28;20659;-69
2022/05/11 21:01:33;;;;;;;3.47;2.80;;;23.20;48.80;;;;;;4979770;28;20224;-68
2022/05/11 21:04:00;;;;;;;3.17;2.97;;;23.10;48.80;;;;;;4980847;28;20221;-69
2022/05/11 21:06:29;;;;;;;3.75;2.90;;;23.10;48.80;;;;;;4979804;28;20679;-67
2022/05/11 21:08:56;;;;;;;3.30;3.00;;;23.10;48.80;;;;;;4980934;28;20237;-70
2022/05/11 21:11:24;;;;;;;2.90;2.70;;;23.10;49.00;;;;;;4979529;28;20194;-68
2022/05/11 21:13:52;;;;;;;2.83;2.60;;;23.10;49.00;;;;;;4979596;28;20222;-68
2022/05/11 21:16:19;;;;;;;3.10;2.90;;;23.00;48.80;;;;;;4980813;28;20201;-71
2022/05/11 21:18:47;;;;;;;2.70;2.50;;;23.00;48.80;;;;;;4979549;28;20297;-69
2022/05/11 21:21:15;;;;;;;3.05;2.75;;;23.00;48.80;;;;;;4979610;28;20198;-70
2022/05/11 21:23:42;;;;;;;3.20;2.97;;;23.00;48.90;;;;;;4979576;28;20642;-69
2022/05/11 21:26:10;;;;;;;2.83;2.63;;;23.00;48.90;;;;;;4979428;28;20625;-68
2022/05/11 21:28:43;;;;;;;3.30;2.80;;;22.90;48.90;;;;;;4979327;28;20202;-69
2022/05/11 21:31:19;;;;;;;2.92;2.70;;;22.90;49.00;;;;;;4979718;28;20186;-69
2022/05/11 21:33:48;;;;;;;2.83;2.63;;;22.90;49.10;;;;;;4979351;28;20225;-69
2022/05/11 21:36:17;;;;;;;2.85;2.65;;;22.90;49.20;;;;;;4979803;28;20208;-70
2022/05/11 21:38:45;;;;;;;3.03;2.83;;;22.90;49.20;;;;;;4979910;28;20205;-70
2022/05/11 21:41:17;;;;;;;3.10;2.78;;;22.80;49.20;;;;;;4980744;28;20186;-69
2022/05/11 21:43:46;;;;;;;3.72;2.80;;;22.80;49.30;;;;;;4979325;28;20718;-69
2022/05/11 21:46:14;;;;;;;2.80;2.60;;;22.80;49.30;;;;;;4976670;28;20209;-68
2022/05/11 21:48:41;;;;;;;2.80;2.60;;;22.80;50.00;;;;;;4977380;28;20213;-68
2022/05/11 21:51:10;;;;;;;2.90;2.70;;;22.70;49.30;;;;;;4976578;28;20663;-67
2022/05/11 21:53:47;;;;;;;2.58;2.40;;;22.70;49.40;;;;;;4977935;28;20301;-68
2022/05/11 21:56:18;;;;;;;2.90;2.60;;;22.70;49.40;;;;;;4976220;28;20292;-67